createdAt,value
2022-09-20T00:01:22.380Z,5.97
2022-09-20T00:03:52.886Z,1.67
2022-09-20T00:06:22.189Z,2.50
2022-09-20T00:08:49.698Z,1.95
2022-09-20T00:11:22.226Z,3.50
2022-09-20T00:13:50.858Z,2.70
2022-09-20T00:16:27.787Z,3.28
2022-09-20T00:18:58.671Z,5.10
2022-09-20T00:21:31.204Z,4.63
2022-09-20T00:23:58.413Z,1.85
2022-09-20T00:26:27.062Z,3.28
2022-09-20T00:28:53.928Z,2.20
2022-09-20T00:31:20.672Z,5.15
2022-09-20T00:34:06.007Z,2.55
2022-09-20T00:36:32.625Z,4.25
2022-09-20T00:39:03.432Z,4.30
2022-09-20T00:41:31.783Z,3.90
2022-09-20T00:44:00.205Z,3.83
2022-09-20T00:46:37.574Z,5.20
2022-09-20T00:49:13.940Z,3.83
2022-09-20T00:51:44.963Z,2.65
2022-09-20T00:54:16.978Z,3.03
2022-09-20T00:56:46.579Z,5.97
2022-09-20T00:59:22.137Z,1.98
2022-09-20T01:01:56.487Z,2.67
2022-09-20T01:04:27.051Z,4.28
2022-09-20T01:06:56.328Z,3.33
2022-09-20T01:09:22.736Z,2.80
2022-09-20T01:11:51.963Z,4.38
2022-09-20T01:14:22.151Z,3.05
2022-09-20T01:16:48.646Z,6.00
2022-09-20T01:19:58.185Z,3.55
2022-09-20T01:22:33.257Z,2.05
2022-09-20T01:25:28.742Z,1.55
2022-09-20T01:27:55.407Z,2.97
2022-09-20T01:30:32.224Z,1.73
2022-09-20T01:33:07.745Z,2.92
2022-09-20T01:35:35.431Z,2.90
2022-09-20T01:38:12.267Z,2.35
2022-09-20T01:40:56.855Z,2.95
2022-09-20T01:43:35.339Z,4.05
2022-09-20T01:46:12.328Z,2.03
2022-09-20T01:48:40.249Z,2.90
2022-09-20T01:51:18.845Z,2.17
2022-09-20T01:53:45.273Z,1.67
2022-09-20T01:56:29.894Z,3.97
2022-09-20T01:59:35.319Z,1.90
2022-09-20T02:02:22.165Z,3.63
2022-09-20T02:05:22.367Z,3.30
2022-09-20T02:08:03.849Z,2.65
2022-09-20T02:10:52.002Z,2.88
2022-09-20T02:13:28.288Z,2.22
2022-09-20T02:15:57.692Z,2.97
2022-09-20T02:18:36.353Z,2.78
2022-09-20T02:21:48.743Z,3.28
2022-09-20T02:24:21.170Z,2.55
2022-09-20T02:27:24.725Z,2.38
2022-09-20T02:30:12.738Z,3.95
2022-09-20T02:32:45.116Z,2.90
2022-09-20T02:35:44.994Z,1.65
2022-09-20T02:38:36.296Z,5.53
2022-09-20T02:41:18.020Z,2.28
2022-09-20T02:44:06.951Z,2.65
2022-09-20T02:47:15.629Z,4.57
2022-09-20T02:50:16.390Z,3.97
2022-09-20T02:53:04.273Z,5.47
2022-09-20T02:55:41.140Z,4.97
2022-09-20T02:58:32.361Z,2.22
2022-09-20T03:01:21.188Z,1.92
2022-09-20T03:04:11.936Z,2.55
2022-09-20T03:06:56.547Z,2.20
2022-09-20T03:09:34.877Z,1.05
2022-09-20T03:12:27.094Z,1.33
2022-09-20T03:15:29.509Z,1.65
2022-09-20T03:18:42.220Z,2.00
2022-09-20T03:21:22.659Z,3.20
2022-09-20T03:24:01.033Z,1.60
2022-09-20T03:26:42.471Z,5.60
2022-09-20T03:29:16.678Z,3.97
2022-09-20T03:32:13.219Z,2.42
2022-09-20T03:34:58.899Z,1.23
2022-09-20T03:37:53.029Z,1.65
2022-09-20T03:40:45.592Z,3.50
2022-09-20T03:43:37.895Z,2.30
2022-09-20T03:46:27.773Z,1.77
2022-09-20T03:49:36.099Z,1.92
2022-09-20T03:52:35.556Z,3.17
2022-09-20T03:55:22.517Z,1.27
2022-09-20T03:58:29.807Z,4.72
2022-09-20T04:01:10.570Z,3.00
2022-09-20T04:03:53.679Z,6.35
2022-09-20T04:06:41.276Z,4.15
2022-09-20T04:09:07.636Z,2.05
2022-09-20T04:12:02.169Z,3.08
2022-09-20T04:15:04.320Z,1.90
2022-09-20T04:17:39.904Z,2.60
2022-09-20T04:20:28.533Z,2.20
2022-09-20T04:22:59.170Z,3.35
2022-09-20T04:25:33.980Z,4.63
2022-09-20T04:28:09.450Z,4.15
2022-09-20T04:30:43.897Z,2.95
2022-09-20T04:33:20.746Z,2.17
2022-09-20T04:36:30.091Z,1.88
2022-09-20T04:39:11.830Z,3.00
2022-09-20T04:42:03.308Z,4.18
2022-09-20T04:44:52.659Z,3.08
2022-09-20T04:47:47.584Z,3.65
2022-09-20T04:50:29.911Z,3.08
2022-09-20T04:53:15.608Z,5.43
2022-09-20T04:56:01.836Z,5.72
2022-09-20T04:58:38.300Z,5.47
2022-09-20T05:01:17.531Z,3.30
2022-09-20T05:04:32.232Z,3.85
2022-09-20T05:07:10.743Z,2.28
2022-09-20T05:10:13.571Z,4.53
2022-09-20T05:12:46.380Z,5.32
2022-09-20T05:15:24.828Z,4.15
2022-09-20T05:18:03.429Z,4.65
2022-09-20T05:20:48.236Z,3.88
2022-09-20T05:23:32.958Z,4.00
2022-09-20T05:26:17.699Z,2.95
2022-09-20T05:28:59.987Z,2.67
2022-09-20T05:31:40.971Z,2.90
2022-09-20T05:34:31.991Z,2.75
2022-09-20T05:37:16.573Z,2.67
2022-09-20T05:39:57.122Z,4.30
2022-09-20T05:42:47.413Z,4.40
2022-09-20T05:45:31.289Z,3.03
2022-09-20T05:48:11.074Z,5.28
2022-09-20T05:50:55.533Z,2.60
2022-09-20T05:54:01.101Z,4.90
2022-09-20T05:57:16.056Z,6.13
2022-09-20T06:02:51.816Z,5.50
2022-09-20T06:05:42.650Z,2.60
2022-09-20T06:08:24.846Z,4.30
2022-09-20T06:10:56.255Z,5.18
2022-09-20T06:13:41.341Z,2.53
2022-09-20T06:16:14.066Z,3.08
2022-09-20T06:18:50.048Z,2.75
2022-09-20T06:21:16.422Z,4.72
2022-09-20T06:23:43.127Z,5.15
2022-09-20T06:26:26.543Z,3.22
2022-09-20T06:29:03.019Z,4.78
2022-09-20T06:31:29.657Z,4.22
2022-09-20T06:34:04.312Z,4.63
2022-09-20T06:36:55.131Z,4.78
2022-09-20T06:39:55.669Z,2.88
2022-09-20T06:42:27.520Z,5.68
2022-09-20T06:44:54.443Z,5.15
2022-09-20T06:47:27.197Z,9.80
2022-09-20T06:50:00.047Z,7.55
2022-09-20T06:52:29.162Z,7.40
2022-09-20T06:54:58.654Z,3.75
2022-09-20T06:57:35.292Z,3.40
2022-09-20T07:00:04.510Z,4.55
2022-09-20T07:02:33.457Z,4.47
2022-09-20T07:04:59.896Z,3.50
2022-09-20T07:07:26.380Z,5.68
2022-09-20T07:09:55.437Z,5.28
2022-09-20T07:12:21.828Z,5.38
2022-09-20T07:14:50.512Z,6.72
2022-09-20T07:17:16.928Z,5.82
2022-09-20T07:19:43.495Z,6.38
2022-09-20T07:22:09.984Z,7.68
2022-09-20T07:24:40.558Z,3.33
2022-09-20T07:27:11.458Z,8.75
2022-09-20T07:29:38.075Z,5.38
2022-09-20T07:32:07.102Z,7.10
2022-09-20T07:34:33.673Z,7.60
2022-09-20T07:37:00.213Z,10.80
2022-09-20T07:39:29.555Z,7.55
2022-09-20T07:41:58.364Z,8.63
2022-09-20T07:44:29.700Z,7.57
2022-09-20T07:46:58.142Z,5.30
2022-09-20T07:49:29.899Z,11.38
2022-09-20T07:51:59.285Z,7.22
2022-09-20T07:54:28.234Z,8.75
2022-09-20T07:56:54.767Z,4.35
2022-09-20T07:59:21.316Z,8.00
2022-09-20T08:01:47.795Z,9.38
2022-09-20T08:04:19.427Z,9.18
2022-09-20T08:06:46.322Z,5.18
2022-09-20T08:09:13.626Z,7.63
2022-09-20T08:11:42.025Z,7.90
2022-09-20T08:14:15.422Z,7.22
2022-09-20T08:16:50.205Z,6.18
2022-09-20T08:19:21.926Z,9.55
2022-09-20T08:21:54.390Z,6.20
2022-09-20T08:24:22.052Z,5.82
2022-09-20T08:26:48.947Z,5.40
2022-09-20T08:29:15.446Z,7.63
2022-09-20T08:31:44.613Z,4.80
2022-09-20T08:34:15.190Z,9.93
2022-09-20T08:36:47.237Z,8.18
2022-09-20T08:42:09.128Z,7.05
2022-09-20T08:45:00.514Z,7.85
2022-09-20T08:47:32.100Z,9.45
2022-09-20T08:50:17.306Z,6.95
2022-09-20T08:52:49.461Z,5.85
2022-09-20T08:55:21.629Z,6.03
2022-09-20T08:57:52.565Z,6.75
2022-09-20T09:00:23.318Z,9.98
2022-09-20T09:05:52.736Z,8.48
2022-09-20T09:08:37.556Z,5.47
2022-09-20T09:11:12.820Z,8.43
2022-09-20T09:14:01.662Z,9.07
2022-09-20T09:16:35.410Z,9.43
2022-09-20T09:22:20.828Z,9.98
2022-09-20T09:25:10.262Z,6.20
2022-09-20T09:27:57.184Z,5.10
2022-09-20T09:30:44.682Z,7.65
2022-09-20T09:33:30.710Z,21.77
2022-09-20T09:36:00.264Z,7.25
2022-09-20T09:38:34.845Z,8.38
2022-09-20T09:41:08.974Z,4.30
2022-09-20T09:43:37.568Z,5.25
2022-09-20T09:46:25.366Z,6.38
2022-09-20T09:49:15.693Z,5.22
2022-09-20T09:52:01.817Z,8.18
2022-09-20T09:54:43.355Z,5.70
2022-09-20T09:57:55.790Z,6.80
2022-09-20T10:00:24.205Z,9.00
2022-09-20T10:03:09.598Z,16.17
2022-09-20T10:06:04.782Z,6.00
2022-09-20T10:08:43.858Z,6.80
2022-09-20T10:11:23.352Z,6.68
2022-09-20T10:14:25.055Z,5.82
2022-09-20T10:16:51.510Z,5.03
2022-09-20T10:19:58.283Z,7.00
2022-09-20T10:23:21.384Z,9.77
2022-09-20T10:26:13.305Z,5.43
2022-09-20T10:28:48.521Z,5.47
2022-09-20T10:31:29.348Z,5.13
2022-09-20T10:34:39.921Z,8.07
2022-09-20T10:37:19.128Z,5.25
2022-09-20T10:39:59.766Z,5.93
2022-09-20T10:42:53.987Z,9.25
2022-09-20T10:46:03.356Z,5.55
2022-09-20T10:48:52.442Z,4.70
2022-09-20T10:51:34.369Z,7.00
2022-09-20T10:54:33.181Z,6.35
2022-09-20T10:57:30.942Z,4.03
2022-09-20T11:00:19.222Z,7.80
2022-09-20T11:03:31.285Z,4.72
2022-09-20T11:06:18.780Z,5.30
2022-09-20T11:08:51.682Z,5.13
2022-09-20T11:11:23.566Z,7.17
2022-09-20T11:13:59.376Z,8.85
2022-09-20T11:16:37.748Z,5.45
2022-09-20T11:19:32.906Z,7.65
2022-09-20T11:22:20.023Z,5.00
2022-09-20T11:25:04.434Z,5.45
2022-09-20T11:27:43.979Z,4.30
2022-09-20T11:30:19.503Z,4.80
2022-09-20T11:33:08.251Z,3.83
2022-09-20T11:36:25.788Z,7.13
2022-09-20T11:42:24.287Z,7.55
2022-09-20T11:44:51.738Z,6.25
2022-09-20T11:47:53.236Z,4.85
2022-09-20T11:50:38.930Z,5.47
2022-09-20T11:53:42.662Z,7.13
2022-09-20T11:56:18.168Z,5.73
2022-09-20T11:58:55.249Z,4.72
2022-09-20T12:01:28.901Z,5.30
2022-09-20T12:06:45.257Z,5.65
2022-09-20T12:09:32.936Z,10.18
2022-09-20T12:12:13.529Z,4.15
2022-09-20T12:14:40.328Z,5.28
2022-09-20T12:18:05.538Z,5.40
2022-09-20T12:20:38.932Z,3.58
2022-09-20T12:23:43.192Z,3.75
2022-09-20T12:26:15.711Z,4.63
2022-09-20T12:28:50.114Z,5.72
2022-09-20T12:31:19.866Z,6.65
2022-09-20T12:34:11.888Z,8.68
2022-09-20T12:36:44.137Z,6.45
2022-09-20T12:39:17.649Z,4.78
2022-09-20T12:41:49.615Z,3.38
2022-09-20T12:44:40.418Z,6.65
2022-09-20T12:47:19.792Z,5.78
2022-09-20T12:50:04.911Z,3.15
2022-09-20T12:53:04.260Z,5.60
2022-09-20T12:55:50.492Z,4.97
2022-09-20T12:58:26.752Z,4.63
2022-09-20T13:00:59.124Z,4.85
2022-09-20T13:03:35.334Z,4.55
2022-09-20T13:06:05.712Z,7.28
2022-09-20T13:08:43.870Z,4.35
2022-09-20T13:11:51.060Z,4.45
2022-09-20T13:14:22.810Z,6.45
2022-09-20T13:16:56.511Z,5.25
2022-09-20T13:22:11.402Z,4.63
2022-09-20T13:24:41.643Z,6.60
2022-09-20T13:27:19.355Z,5.80
2022-09-20T13:29:46.272Z,4.53
2022-09-20T13:32:26.802Z,4.53
2022-09-20T13:35:16.839Z,3.20
2022-09-20T13:37:58.360Z,8.30
2022-09-20T13:40:34.161Z,6.28
2022-09-20T13:43:33.662Z,7.38
2022-09-20T13:46:08.467Z,4.15
2022-09-20T13:48:35.283Z,4.68
2022-09-20T13:51:02.492Z,5.13
2022-09-20T13:53:41.544Z,6.70
2022-09-20T13:56:25.586Z,6.82
2022-09-20T13:58:52.734Z,8.50
2022-09-20T14:01:36.806Z,3.97
2022-09-20T14:06:52.580Z,9.00
2022-09-20T14:09:26.542Z,5.25
2022-09-20T14:11:54.063Z,6.03
2022-09-20T14:14:23.031Z,3.95
2022-09-20T14:16:54.564Z,3.53
2022-09-20T14:19:26.561Z,4.57
2022-09-20T14:21:53.179Z,4.03
2022-09-20T14:24:30.373Z,6.38
2022-09-20T14:27:03.454Z,5.68
2022-09-20T14:29:40.038Z,5.85
2022-09-20T14:32:15.172Z,7.43
2022-09-20T14:34:41.835Z,5.70
2022-09-20T14:37:48.190Z,8.15
2022-09-20T14:40:27.265Z,3.75
2022-09-20T14:42:56.854Z,5.78
2022-09-20T14:45:26.348Z,7.53
2022-09-20T14:48:10.429Z,2.72
2022-09-20T14:50:43.325Z,2.28
2022-09-20T14:53:12.566Z,4.95
2022-09-20T14:55:42.253Z,4.70
2022-09-20T14:58:16.343Z,3.63
2022-09-20T15:00:53.642Z,6.90
2022-09-20T15:03:30.981Z,3.78
2022-09-20T15:06:02.365Z,6.28
2022-09-20T15:08:28.995Z,8.02
2022-09-20T15:10:55.542Z,6.18
2022-09-20T15:13:24.487Z,5.97
2022-09-20T15:15:53.583Z,11.13
2022-09-20T15:18:21.889Z,5.57
2022-09-20T15:20:50.190Z,3.35
2022-09-20T15:23:17.453Z,3.05
2022-09-20T15:25:44.000Z,6.88
2022-09-20T15:28:16.872Z,5.93
2022-09-20T15:30:45.041Z,2.53
2022-09-20T15:33:12.373Z,4.95
2022-09-20T15:35:40.181Z,3.05
2022-09-20T15:38:11.648Z,4.97
2022-09-20T15:40:42.765Z,4.20
2022-09-20T15:43:13.250Z,4.45
2022-09-20T15:46:00.314Z,5.72
2022-09-20T15:48:30.306Z,4.60
2022-09-20T15:51:02.847Z,6.18
2022-09-20T15:53:41.074Z,4.70
2022-09-20T15:56:22.834Z,12.10
2022-09-20T15:58:59.321Z,8.20
2022-09-20T16:01:27.039Z,7.53
2022-09-20T16:03:53.987Z,5.43
2022-09-20T16:06:20.939Z,5.05
2022-09-20T16:08:48.087Z,4.07
2022-09-20T16:11:21.772Z,5.18
2022-09-20T16:13:56.677Z,8.15
2022-09-20T16:16:27.589Z,3.22
2022-09-20T16:19:12.675Z,7.53
2022-09-20T16:21:43.210Z,4.10
2022-09-20T16:24:12.349Z,3.38
2022-09-20T16:26:39.687Z,4.38
2022-09-20T16:29:09.446Z,9.38
2022-09-20T16:31:36.628Z,8.55
2022-09-20T16:34:07.880Z,8.40
2022-09-20T16:36:36.869Z,5.40
2022-09-20T16:39:03.603Z,7.20
2022-09-20T16:41:32.361Z,5.45
2022-09-20T16:43:58.797Z,8.90
2022-09-20T16:46:29.071Z,6.03
2022-09-20T16:48:56.751Z,4.25
2022-09-20T16:51:33.457Z,4.80
2022-09-20T16:54:11.685Z,8.77
2022-09-20T16:56:42.445Z,5.10
2022-09-20T16:59:09.260Z,7.03
2022-09-20T17:01:36.926Z,5.18
2022-09-20T17:04:07.550Z,6.63
2022-09-20T17:06:35.766Z,5.93
2022-09-20T17:09:03.604Z,7.05
2022-09-20T17:11:33.052Z,8.40
2022-09-20T17:14:00.103Z,7.03
2022-09-20T17:16:31.896Z,7.88
2022-09-20T17:19:09.582Z,21.23
2022-09-20T17:21:38.662Z,8.60
2022-09-20T17:24:07.661Z,13.05
2022-09-20T17:26:40.204Z,16.67
2022-09-20T17:29:11.030Z,18.42
2022-09-20T17:31:41.929Z,22.45
2022-09-20T17:34:10.992Z,22.48
2022-09-20T17:36:40.748Z,12.98
2022-09-20T17:39:12.150Z,13.93
2022-09-20T17:41:46.848Z,17.70
2022-09-20T17:44:17.208Z,8.88
2022-09-20T17:46:46.124Z,3.67
2022-09-20T17:49:18.091Z,5.75
2022-09-20T17:51:50.077Z,3.85
2022-09-20T17:54:19.372Z,2.03
2022-09-20T17:56:48.461Z,2.95
2022-09-20T17:59:16.879Z,2.72
2022-09-20T18:01:45.052Z,3.28
2022-09-20T18:04:11.709Z,2.78
2022-09-20T18:06:45.207Z,2.67
2022-09-20T18:09:15.307Z,2.05
2022-09-20T18:11:46.351Z,4.70
2022-09-20T18:14:13.484Z,3.65
2022-09-20T18:16:40.359Z,2.97
2022-09-20T18:19:10.642Z,1.80
2022-09-20T18:21:39.218Z,2.65
2022-09-20T18:24:09.935Z,2.40
2022-09-20T18:26:38.007Z,3.55
2022-09-20T18:29:07.680Z,2.00
2022-09-20T18:31:43.198Z,2.22
2022-09-20T18:34:20.814Z,5.05
2022-09-20T18:36:58.286Z,5.55
2022-09-20T18:39:27.853Z,5.75
2022-09-20T18:41:54.837Z,3.58
2022-09-20T18:44:22.649Z,3.17
2022-09-20T18:46:52.279Z,5.82
2022-09-20T18:49:20.996Z,14.50
2022-09-20T18:51:48.580Z,10.45
2022-09-20T18:54:15.976Z,7.20
2022-09-20T18:56:44.307Z,5.80
2022-09-20T18:59:18.504Z,3.22
2022-09-20T19:01:53.312Z,2.40
2022-09-20T19:04:45.945Z,3.00
2022-09-20T19:07:27.943Z,4.13
2022-09-20T19:10:00.467Z,5.72
2022-09-20T19:12:48.444Z,5.25
2022-09-20T19:15:52.649Z,3.17
2022-09-20T19:18:58.719Z,3.35
2022-09-20T19:21:35.342Z,7.43
2022-09-20T19:24:21.690Z,8.75
2022-09-20T19:26:48.773Z,4.72
2022-09-20T19:29:22.337Z,4.28
2022-09-20T19:31:51.341Z,7.80
2022-09-20T19:34:21.350Z,3.13
2022-09-20T19:37:19.590Z,1.83
2022-09-20T19:40:09.075Z,4.65
2022-09-20T19:42:36.237Z,3.15
2022-09-20T19:45:31.291Z,12.93
2022-09-20T19:48:23.716Z,11.43
2022-09-20T19:50:52.854Z,12.00
2022-09-20T19:53:27.049Z,11.55
2022-09-20T19:56:14.424Z,6.25
2022-09-20T19:58:43.246Z,5.57
2022-09-20T20:01:10.262Z,6.88
2022-09-20T20:03:37.030Z,5.18
2022-09-20T20:06:20.859Z,10.15
2022-09-20T20:08:54.914Z,9.80
2022-09-20T20:11:38.967Z,11.07
2022-09-20T20:16:43.061Z,6.07
2022-09-20T20:19:27.686Z,4.38
2022-09-20T20:22:11.346Z,5.20
2022-09-20T20:24:51.308Z,6.00
2022-09-20T20:27:18.640Z,6.07
2022-09-20T20:29:45.162Z,6.18
2022-09-20T20:32:11.692Z,5.40
2022-09-20T20:34:40.482Z,6.70
2022-09-20T20:37:07.978Z,8.98
2022-09-20T20:39:34.775Z,6.60
2022-09-20T20:42:02.832Z,5.55
2022-09-20T20:44:35.341Z,4.97
2022-09-20T20:47:03.281Z,8.05
2022-09-20T20:49:32.286Z,6.40
2022-09-20T20:52:02.836Z,7.78
2022-09-20T20:54:32.207Z,8.73
2022-09-20T20:57:03.272Z,7.38
2022-09-20T20:59:29.817Z,11.63
2022-09-20T21:01:58.491Z,7.35
2022-09-20T21:04:25.320Z,10.30
2022-09-20T21:06:51.733Z,12.55
2022-09-20T21:09:18.144Z,10.68
2022-09-20T21:11:44.815Z,11.95
2022-09-20T21:14:12.544Z,11.68
2022-09-20T21:16:44.161Z,10.60
2022-09-20T21:19:18.159Z,12.77
2022-09-20T21:21:47.753Z,12.15
2022-09-20T21:24:22.200Z,11.15
2022-09-20T21:26:48.721Z,8.02
2022-09-20T21:29:15.877Z,7.82
2022-09-20T21:31:46.817Z,5.85
2022-09-20T21:34:15.318Z,5.70
2022-09-20T21:36:42.669Z,12.48
2022-09-20T21:39:09.223Z,6.28
2022-09-20T21:41:37.542Z,5.85
2022-09-20T21:44:05.775Z,10.82
2022-09-20T21:46:39.141Z,4.47
2022-09-20T21:49:08.533Z,4.72
2022-09-20T21:51:38.284Z,4.35
2022-09-20T21:54:05.249Z,5.18
2022-09-20T21:56:34.856Z,6.03
2022-09-20T21:59:04.368Z,3.90
2022-09-20T22:01:36.313Z,2.25
2022-09-20T22:04:08.177Z,1.63
2022-09-20T22:06:37.550Z,2.92
2022-09-20T22:09:12.299Z,2.20
2022-09-20T22:11:45.820Z,4.68
2022-09-20T22:14:13.945Z,3.63
2022-09-20T22:16:42.252Z,7.35
2022-09-20T22:19:11.154Z,4.72
2022-09-20T22:21:39.952Z,3.22
2022-09-20T22:24:08.976Z,5.18
2022-09-20T22:26:38.554Z,7.32
2022-09-20T22:29:06.477Z,3.90
2022-09-20T22:31:38.885Z,4.55
2022-09-20T22:34:07.287Z,4.25
2022-09-20T22:36:36.349Z,4.78
2022-09-20T22:39:05.096Z,5.32
2022-09-20T22:41:31.696Z,5.65
2022-09-20T22:43:58.105Z,5.03
2022-09-20T22:46:29.399Z,3.00
2022-09-20T22:48:56.483Z,4.25
2022-09-20T22:51:29.138Z,6.10
2022-09-20T22:53:55.872Z,8.73
2022-09-20T22:56:25.026Z,4.78
2022-09-20T22:58:56.719Z,11.25
2022-09-20T23:01:25.985Z,5.00
2022-09-20T23:04:13.773Z,11.13
2022-09-20T23:06:48.231Z,7.20
2022-09-20T23:09:16.442Z,6.03
2022-09-20T23:11:43.440Z,9.38
2022-09-20T23:14:15.198Z,7.13
2022-09-20T23:16:42.225Z,6.38
2022-09-20T23:19:09.353Z,7.78
2022-09-20T23:21:37.840Z,7.53
2022-09-20T23:24:07.152Z,7.72
2022-09-20T23:26:35.979Z,4.18
2022-09-20T23:29:05.583Z,4.25
2022-09-20T23:31:34.612Z,4.90
2022-09-20T23:34:02.909Z,6.35
2022-09-20T23:36:33.707Z,4.95
2022-09-20T23:39:02.446Z,8.35
2022-09-20T23:41:29.611Z,8.88
2022-09-20T23:43:56.215Z,4.60
2022-09-20T23:46:25.210Z,5.15
2022-09-20T23:48:52.454Z,5.53
2022-09-20T23:51:22.391Z,8.65
2022-09-20T23:53:50.206Z,7.65
2022-09-20T23:56:19.532Z,7.35
2022-09-20T23:58:46.803Z,7.03
